Time;durP1;ratioP1;P1;durP2;ratioP2;P2;SDS_P1;SDS_P2;PMS_P1;PMS_P2;Temp;Humidity;BMP_temperature;BMP_pressure;BME280_temperature;BME280_humidity;BME280_pressure;Samples;Min_cycle;Max_cycle;Signal;HPM_P1;HPM_P2
2023/07/13 00:00:40;;;;;;;18.17;10.00;;;26.90;82.80;;;;;;5010783;28;20053;-76
2023/07/13 00:03:44;;;;;;;17.70;9.63;;;26.80;82.80;;;;;;5010436;28;20061;-76
2023/07/13 00:06:50;;;;;;;20.02;9.35;;;26.80;83.20;;;;;;5010015;28;20393;-76
2023/07/13 00:09:54;;;;;;;21.90;9.02;;;26.80;83.20;;;;;;5010701;28;20045;-76
2023/07/13 00:12:58;;;;;;;18.70;8.23;;;26.80;83.00;;;;;;5010571;28;20037;-75
2023/07/13 00:16:02;;;;;;;17.17;8.70;;;26.80;82.60;;;;;;5010765;28;20049;-76
2023/07/13 00:19:06;;;;;;;19.55;9.15;;;26.90;82.10;;;;;;5010538;28;20511;-75
2023/07/13 00:22:10;;;;;;;23.58;9.02;;;26.80;81.80;;;;;;5010393;28;20041;-77
2023/07/13 00:25:15;;;;;;;21.08;9.13;;;26.80;82.20;;;;;;5010177;28;20052;-75
2023/07/13 00:28:19;;;;;;;22.55;9.65;;;26.80;81.70;;;;;;5009430;28;20049;-76
2023/07/13 00:31:23;;;;;;;20.92;9.55;;;26.80;81.30;;;;;;5010508;28;20396;-76
2023/07/13 00:34:27;;;;;;;22.05;9.20;;;26.80;81.80;;;;;;5009923;28;20041;-76
2023/07/13 00:37:31;;;;;;;17.48;9.10;;;26.70;82.10;;;;;;5010346;28;20049;-76
2023/07/13 00:40:36;;;;;;;18.02;9.30;;;26.70;82.10;;;;;;5009285;28;20248;-76
2023/07/13 00:43:40;;;;;;;28.40;10.70;;;26.70;82.40;;;;;;5008874;28;20061;-76
2023/07/13 00:46:45;;;;;;;19.73;10.55;;;26.70;82.80;;;;;;5008364;28;20041;-76
2023/07/13 00:49:50;;;;;;;24.10;10.85;;;26.70;83.10;;;;;;5009851;28;20049;-77
2023/07/13 00:52:57;;;;;;;16.23;9.18;;;26.60;82.90;;;;;;5009786;28;20045;-77
2023/07/13 00:56:02;;;;;;;16.48;9.88;;;26.60;83.10;;;;;;5009184;28;20045;-76
2023/07/13 00:59:08;;;;;;;17.33;9.32;;;26.50;83.10;;;;;;5008892;28;20053;-76
2023/07/13 01:02:12;;;;;;;15.60;9.55;;;26.50;83.00;;;;;;5009740;28;20052;-76
2023/07/13 01:05:20;;;;;;;27.02;9.48;;;26.40;83.00;;;;;;5009504;28;20045;-76
2023/07/13 01:08:25;;;;;;;14.75;8.70;;;26.30;83.30;;;;;;5008952;28;20393;-77
2023/07/13 01:11:29;;;;;;;20.88;9.77;;;26.40;83.50;;;;;;5009851;28;20049;-76
2023/07/13 01:14:33;;;;;;;14.07;8.93;;;26.30;83.30;;;;;;5008499;28;20408;-76
2023/07/13 01:17:37;;;;;;;22.67;9.00;;;26.30;83.20;;;;;;5009787;28;20508;-76
2023/07/13 01:20:55;;;;;;;25.80;9.07;;;26.30;83.00;;;;;;5009164;28;20048;-76
2023/07/13 01:23:59;;;;;;;16.95;8.85;;;26.30;82.80;;;;;;5008843;28;20061;-76
2023/07/13 01:27:05;;;;;;;15.35;9.07;;;26.20;82.80;;;;;;5009285;28;20041;-76
2023/07/13 01:30:10;;;;;;;15.77;9.10;;;26.20;83.40;;;;;;5008692;28;20045;-76
2023/07/13 01:33:16;;;;;;;16.50;8.48;;;26.30;82.70;;;;;;5008226;28;20508;-76
2023/07/13 01:36:21;;;;;;;16.92;8.25;;;26.30;82.40;;;;;;5009434;28;20045;-76
2023/07/13 01:39:25;;;;;;;15.80;8.07;;;26.40;82.50;;;;;;5008446;28;20578;-76
2023/07/13 01:42:29;;;;;;;14.90;9.20;;;26.40;82.90;;;;;;5008263;28;20040;-76
2023/07/13 01:45:33;;;;;;;16.90;8.63;;;26.30;82.70;;;;;;5008519;28;20057;-76
2023/07/13 01:48:37;;;;;;;17.48;8.65;;;26.20;83.30;;;;;;5008833;28;20041;-76
2023/07/13 01:51:41;;;;;;;21.92;9.00;;;26.00;83.60;;;;;;5008942;28;20053;-75
2023/07/13 01:54:45;;;;;;;18.92;9.90;;;26.00;83.10;;;;;;5009083;28;20045;-75
2023/07/13 01:57:49;;;;;;;16.60;8.75;;;26.00;84.00;;;;;;5007873;28;20393;-75
2023/07/13 02:00:53;;;;;;;18.38;9.23;;;26.00;84.20;;;;;;5008123;28;20041;-75
2023/07/13 02:04:01;;;;;;;18.35;8.73;;;26.00;83.70;;;;;;5008623;28;20053;-77
2023/07/13 02:07:09;;;;;;;15.68;8.60;;;26.00;82.90;;;;;;5008139;28;20507;-77
2023/07/13 02:10:13;;;;;;;21.58;8.20;;;26.10;82.30;;;;;;5008641;28;20053;-77
2023/07/13 02:13:17;;;;;;;18.92;8.73;;;26.00;82.90;;;;;;5007584;28;20045;-77
2023/07/13 02:16:21;;;;;;;22.48;9.55;;;26.00;82.30;;;;;;5008562;28;20044;-77
2023/07/13 02:19:25;;;;;;;13.95;8.52;;;26.00;82.40;;;;;;5009182;28;20515;-77
2023/07/13 02:22:28;;;;;;;18.38;8.38;;;26.00;82.60;;;;;;5008400;28;20049;-77
2023/07/13 02:25:34;;;;;;;20.80;9.55;;;25.90;82.90;;;;;;5009367;28;20045;-77
2023/07/13 02:28:39;;;;;;;26.05;9.63;;;25.80;83.70;;;;;;5008520;28;20037;-77
2023/07/13 02:31:43;;;;;;;17.67;8.25;;;25.80;83.40;;;;;;5008312;28;20045;-77
2023/07/13 02:34:47;;;;;;;12.95;7.97;;;25.70;83.80;;;;;;5007755;28;20049;-75
2023/07/13 02:37:50;;;;;;;16.70;8.93;;;25.80;83.30;;;;;;5007610;28;20101;-76
2023/07/13 02:40:55;;;;;;;18.40;8.32;;;25.80;82.70;;;;;;5007340;28;20044;-77
2023/07/13 02:44:03;;;;;;;17.48;8.85;;;25.80;82.90;;;;;;5007298;28;20053;-76
2023/07/13 02:47:07;;;;;;;25.50;8.18;;;25.70;83.40;;;;;;5008150;28;20656;-76
2023/07/13 02:50:11;;;;;;;14.68;8.48;;;25.60;83.30;;;;;;5008102;28;20045;-76
2023/07/13 02:53:16;;;;;;;21.65;8.15;;;25.70;83.40;;;;;;5008445;28;20049;-76
2023/07/13 02:56:25;;;;;;;19.73;8.13;;;25.70;83.00;;;;;;5007291;28;20404;-76
2023/07/13 02:59:28;;;;;;;18.55;8.50;;;25.60;83.00;;;;;;5008171;28;20049;-77
2023/07/13 03:02:33;;;;;;;17.17;8.18;;;25.50;83.20;;;;;;5008126;28;20389;-76
2023/07/13 03:05:40;;;;;;;22.52;8.27;;;25.10;83.80;;;;;;5007849;28;20125;-76
2023/07/13 03:08:45;;;;;;;15.65;7.80;;;24.70;84.80;;;;;;5007778;28;20041;-76
2023/07/13 03:11:49;;;;;;;23.67;7.65;;;24.70;85.20;;;;;;5010657;28;20049;-76
2023/07/13 03:15:02;;;;;;;19.15;7.60;;;24.90;84.50;;;;;;5010408;28;20412;-76
2023/07/13 03:18:06;;;;;;;17.92;8.27;;;25.00;84.00;;;;;;5010533;28;20045;-77
2023/07/13 03:21:10;;;;;;;11.43;6.75;;;25.10;83.60;;;;;;5010677;28;20048;-77
2023/07/13 03:24:16;;;;;;;25.83;7.55;;;25.10;83.60;;;;;;5010045;28;20400;-78
2023/07/13 03:27:21;;;;;;;13.25;7.22;;;25.10;83.50;;;;;;5010484;28;20049;-78
2023/07/13 03:30:26;;;;;;;12.05;6.90;;;25.10;83.40;;;;;;5010439;28;20041;-78
2023/07/13 03:33:32;;;;;;;13.50;7.72;;;25.10;82.80;;;;;;5009866;28;20649;-77
2023/07/13 03:36:36;;;;;;;16.85;7.47;;;25.00;82.80;;;;;;5011035;28;20044;-77
2023/07/13 03:39:43;;;;;;;16.20;7.85;;;25.00;82.90;;;;;;5009933;28;20660;-78
2023/07/13 03:42:49;;;;;;;12.85;8.27;;;25.00;83.30;;;;;;5010093;28;20055;-77
2023/07/13 03:45:55;;;;;;;16.02;8.07;;;25.10;83.60;;;;;;5010652;28;20421;-78
2023/07/13 03:49:00;;;;;;;13.38;7.63;;;25.10;83.30;;;;;;5010850;28;20037;-78
2023/07/13 03:52:04;;;;;;;15.10;8.02;;;25.10;83.30;;;;;;5009792;28;20512;-78
2023/07/13 03:55:08;;;;;;;17.00;7.47;;;25.20;83.20;;;;;;5009980;28;20041;-78
2023/07/13 03:58:34;;;;;;;16.13;7.80;;;25.20;82.90;;;;;;5010970;28;20041;-76
2023/07/13 04:01:58;;;;;;;25.27;8.30;;;25.10;83.60;;;;;;5010039;28;20389;-77
2023/07/13 04:05:03;;;;;;;18.85;8.00;;;25.10;83.90;;;;;;5009673;28;20057;-77
2023/07/13 04:08:07;;;;;;;22.15;8.35;;;25.10;83.80;;;;;;5009723;28;20048;-77
2023/07/13 04:11:11;;;;;;;22.13;8.65;;;25.20;83.80;;;;;;5010512;28;20535;-77
2023/07/13 04:14:15;;;;;;;21.75;8.63;;;25.20;83.60;;;;;;5010228;28;20401;-77
2023/07/13 04:17:22;;;;;;;28.60;9.13;;;25.20;83.60;;;;;;5009900;28;20037;-75
2023/07/13 04:20:26;;;;;;;21.17;8.27;;;25.20;83.50;;;;;;5010305;28;20515;-77
2023/07/13 04:23:31;;;;;;;19.42;8.57;;;25.30;83.50;;;;;;5009273;28;20045;-77
2023/07/13 04:26:38;;;;;;;22.85;8.65;;;25.20;83.40;;;;;;5010520;28;20045;-76
2023/07/13 04:29:42;;;;;;;24.00;9.25;;;25.30;83.30;;;;;;5010051;28;20052;-76
2023/07/13 04:32:46;;;;;;;22.55;8.20;;;25.40;82.80;;;;;;5009885;28;20053;-76
2023/07/13 04:35:56;;;;;;;23.05;7.47;;;25.50;82.60;;;;;;5010036;28;20044;-76
2023/07/13 04:39:00;;;;;;;24.13;7.85;;;25.60;81.80;;;;;;5010101;28;20045;-76
2023/07/13 04:42:04;;;;;;;14.43;6.72;;;25.60;80.50;;;;;;5009765;28;20049;-76
2023/07/13 04:45:10;;;;;;;16.83;6.72;;;25.70;79.60;;;;;;5010084;28;20641;-77
2023/07/13 04:48:15;;;;;;;19.48;6.95;;;25.90;78.50;;;;;;5010093;28;20044;-77
2023/07/13 04:51:19;;;;;;;35.70;6.90;;;26.00;78.50;;;;;;5009897;28;20064;-77
2023/07/13 04:54:23;;;;;;;26.05;6.93;;;26.10;78.90;;;;;;5008972;28;20645;-77
2023/07/13 04:57:27;;;;;;;33.15;6.95;;;26.20;78.30;;;;;;5009699;28;20060;-77
2023/07/13 05:00:31;;;;;;;28.10;6.18;;;26.50;77.30;;;;;;5009638;28;20041;-77
2023/07/13 05:03:36;;;;;;;20.33;7.13;;;26.60;76.70;;;;;;5008774;28;20222;-77
2023/07/13 05:06:40;;;;;;;20.88;6.57;;;26.60;76.50;;;;;;5009906;28;20408;-76
2023/07/13 05:09:43;;;;;;;22.85;6.65;;;26.80;76.80;;;;;;5009707;28;20104;-76
2023/07/13 05:12:47;;;;;;;33.35;8.13;;;26.90;76.80;;;;;;5009433;28;20053;-76
2023/07/13 05:16:00;;;;;;;18.80;6.80;;;27.10;77.20;;;;;;5009758;28;20059;-76
2023/07/13 05:19:07;;;;;;;21.15;6.78;;;27.40;76.20;;;;;;5009499;28;20048;-77
2023/07/13 05:22:11;;;;;;;18.80;6.70;;;27.60;76.00;;;;;;5009302;28;20397;-76
2023/07/13 05:25:15;;;;;;;15.25;6.88;;;27.90;75.60;;;;;;5009266;28;20049;-76
2023/07/13 05:28:23;;;;;;;21.58;7.25;;;28.00;75.70;;;;;;5009177;28;20404;-76
2023/07/13 05:31:27;;;;;;;22.73;6.93;;;28.20;75.30;;;;;;5008808;28;20041;-77
2023/07/13 05:34:32;;;;;;;14.95;6.45;;;28.30;75.40;;;;;;5009372;28;20065;-77
2023/07/13 05:37:37;;;;;;;27.30;7.75;;;28.50;75.00;;;;;;5009157;28;20052;-77
2023/07/13 05:40:45;;;;;;;30.25;7.45;;;28.70;74.70;;;;;;5009276;28;20045;-78
2023/07/13 05:43:49;;;;;;;31.83;7.13;;;28.90;75.70;;;;;;5008698;28;20520;-78
2023/07/13 05:46:54;;;;;;;26.92;6.97;;;29.00;75.70;;;;;;5007995;28;20057;-77
2023/07/13 05:49:59;;;;;;;46.38;8.15;;;29.10;75.40;;;;;;5009319;28;20052;-77
2023/07/13 05:53:03;;;;;;;25.80;7.78;;;29.20;76.30;;;;;;5008605;28;20041;-77
2023/07/13 05:56:08;;;;;;;48.85;9.80;;;29.40;76.30;;;;;;5009070;28;20044;-77
2023/07/13 05:59:12;;;;;;;39.90;8.80;;;29.60;74.90;;;;;;5009102;28;20053;-77
2023/07/13 06:02:16;;;;;;;43.10;9.73;;;29.70;74.70;;;;;;5008536;28;20404;-77
2023/07/13 06:05:20;;;;;;;31.42;8.48;;;29.50;74.50;;;;;;5007873;28;20057;-77
2023/07/13 06:08:24;;;;;;;21.27;7.43;;;29.60;74.60;;;;;;5009069;28;20045;-77
2023/07/13 06:11:29;;;;;;;23.02;7.20;;;29.80;74.60;;;;;;5007962;28;20053;-77
2023/07/13 06:14:33;;;;;;;25.67;7.40;;;29.90;75.00;;;;;;5008630;28;20041;-77
2023/07/13 06:17:37;;;;;;;30.35;7.80;;;30.20;74.40;;;;;;5008353;28;20041;-72
2023/07/13 06:20:41;;;;;;;25.40;7.50;;;30.40;73.50;;;;;;5007760;28;20049;-72
2023/07/13 06:23:49;;;;;;;26.38;7.32;;;30.70;73.00;;;;;;5008480;28;20045;-72
2023/07/13 06:26:53;;;;;;;23.10;6.78;;;30.80;72.00;;;;;;5008751;28;20056;-72
2023/07/13 06:29:57;;;;;;;16.08;6.30;;;31.00;71.30;;;;;;5008342;28;20041;-72
2023/07/13 06:33:01;;;;;;;20.13;6.60;;;31.20;70.10;;;;;;5008106;28;20061;-71
2023/07/13 06:36:07;;;;;;;19.98;7.32;;;31.30;69.30;;;;;;5008294;28;20041;-71
2023/07/13 06:39:11;;;;;;;16.02;6.40;;;31.50;68.10;;;;;;5008530;28;20045;-72
2023/07/13 06:42:17;;;;;;;26.13;7.25;;;31.50;67.40;;;;;;5008209;28;20045;-72
2023/07/13 06:45:21;;;;;;;22.88;6.53;;;31.70;66.30;;;;;;5011144;28;20061;-72
2023/07/13 06:48:25;;;;;;;18.10;6.75;;;32.00;66.50;;;;;;5011891;28;20045;-73
2023/07/13 06:51:29;;;;;;;21.42;6.88;;;32.20;66.00;;;;;;5011546;28;20044;-73
2023/07/13 06:54:33;;;;;;;20.15;7.20;;;32.40;64.40;;;;;;5011555;28;20041;-72
2023/07/13 06:57:37;;;;;;;49.42;19.30;;;32.40;64.90;;;;;;5011582;28;20052;-73
2023/07/13 07:00:41;;;;;;;27.73;7.30;;;32.40;65.60;;;;;;5011510;28;20049;-72
2023/07/13 07:03:46;;;;;;;28.42;7.15;;;32.70;63.40;;;;;;5011140;28;20062;-72
2023/07/13 07:06:50;;;;;;;22.90;6.55;;;32.70;63.70;;;;;;5011342;28;20037;-72
2023/07/13 07:09:53;;;;;;;26.33;7.60;;;32.80;63.60;;;;;;5011451;28;20072;-70
2023/07/13 07:12:57;;;;;;;20.50;6.68;;;32.80;63.70;;;;;;5011009;28;20073;-71
2023/07/13 07:16:01;;;;;;;21.77;6.22;;;32.90;63.30;;;;;;5010992;28;20048;-71
2023/07/13 07:19:08;;;;;;;20.58;6.47;;;33.10;62.90;;;;;;5011194;28;20049;-71
2023/07/13 07:22:12;;;;;;;22.40;6.78;;;33.10;62.20;;;;;;5010796;28;20052;-72
2023/07/13 07:25:16;;;;;;;15.77;4.57;;;33.50;61.80;;;;;;5011089;28;20061;-74
2023/07/13 07:28:21;;;;;;;13.38;4.95;;;33.80;58.90;;;;;;5011166;28;20389;-72
2023/07/13 07:31:25;;;;;;;13.50;4.72;;;33.90;59.40;;;;;;5010363;28;20044;-70
2023/07/13 07:34:28;;;;;;;26.48;6.72;;;34.00;59.80;;;;;;5011133;28;20053;-70
2023/07/13 07:37:32;;;;;;;24.50;7.03;;;34.30;60.60;;;;;;5010221;28;20058;-71
2023/07/13 07:40:38;;;;;;;26.02;6.93;;;34.60;61.40;;;;;;4998671;28;20045;-71
2023/07/13 07:43:42;;;;;;;17.70;5.82;;;34.70;61.10;;;;;;5009185;28;20045;-71
2023/07/13 07:46:46;;;;;;;22.63;5.55;;;34.90;60.30;;;;;;5010713;28;20045;-70
2023/07/13 07:49:49;;;;;;;16.08;6.82;;;34.90;60.10;;;;;;5010213;28;20040;-71
2023/07/13 07:52:55;;;;;;;19.08;6.38;;;34.90;60.10;;;;;;5009716;28;20045;-71
2023/07/13 07:56:00;;;;;;;23.70;6.05;;;35.10;59.80;;;;;;5009215;28;20049;-71
2023/07/13 07:59:04;;;;;;;13.63;5.38;;;35.20;60.30;;;;;;5010491;28;20045;-71
2023/07/13 08:02:10;;;;;;;14.00;4.82;;;35.30;59.10;;;;;;5010553;28;20049;-71
2023/07/13 08:05:15;;;;;;;17.73;5.07;;;35.40;59.80;;;;;;5010505;28;20396;-71
2023/07/13 08:08:18;;;;;;;19.98;5.88;;;35.60;59.80;;;;;;5011304;28;20045;-71
2023/07/13 08:11:23;;;;;;;13.45;4.90;;;35.60;59.60;;;;;;5010194;28;20065;-71
2023/07/13 08:14:27;;;;;;;14.95;5.60;;;35.70;59.80;;;;;;5010220;28;20404;-71
2023/07/13 08:17:31;;;;;;;12.32;5.22;;;35.80;59.50;;;;;;5010525;28;20041;-71
2023/07/13 08:20:39;;;;;;;20.23;5.30;;;35.70;59.50;;;;;;5010437;28;20045;-71
2023/07/13 08:23:43;;;;;;;13.75;5.32;;;35.70;59.80;;;;;;5010381;28;20056;-71
2023/07/13 08:26:47;;;;;;;14.02;5.40;;;35.80;59.90;;;;;;5010353;28;20052;-71
2023/07/13 08:29:51;;;;;;;16.63;6.80;;;35.90;60.00;;;;;;5010233;28;20049;-71
2023/07/13 08:32:56;;;;;;;16.80;6.20;;;35.90;61.30;;;;;;5009729;28;20057;-71
2023/07/13 08:35:59;;;;;;;13.90;6.13;;;36.00;62.70;;;;;;5010073;28;20041;-71
2023/07/13 08:39:03;;;;;;;18.40;6.03;;;36.00;62.30;;;;;;5010224;28;20048;-72
2023/07/13 08:42:14;;;;;;;21.83;5.72;;;36.60;63.10;;;;;;5010489;28;20504;-72
2023/07/13 08:45:37;;;;;;;18.30;7.10;;;38.00;61.10;;;;;;5008919;28;20516;-71
2023/07/13 08:48:57;;;;;;;11.70;5.03;;;39.10;59.60;;;;;;5010059;28;20052;-71
2023/07/13 08:52:08;;;;;;;14.98;5.10;;;39.60;58.60;;;;;;5009586;28;20037;-70
2023/07/13 08:55:17;;;;;;;9.32;5.32;;;39.50;55.90;;;;;;5009853;28;20053;-71
2023/07/13 08:58:21;;;;;;;12.30;4.80;;;39.50;55.50;;;;;;5009645;28;20047;-70
2023/07/13 09:01:31;;;;;;;14.23;4.70;;;39.60;55.80;;;;;;5009025;28;20057;-70
2023/07/13 09:04:41;;;;;;;22.17;4.90;;;39.70;55.80;;;;;;5009669;28;20061;-70
2023/07/13 09:08:15;;;;;;;29.58;5.88;;;39.90;55.90;;;;;;5008781;28;20429;-71
2023/07/13 09:11:45;;;;;;;16.55;4.25;;;40.00;55.30;;;;;;5009439;28;20045;-71
2023/07/13 09:14:53;;;;;;;11.60;4.40;;;39.80;54.30;;;;;;5009471;28;20073;-70
2023/07/13 09:18:02;;;;;;;14.75;4.82;;;39.80;55.00;;;;;;5009537;28;20037;-72
2023/07/13 09:21:17;;;;;;;14.93;4.68;;;39.70;54.50;;;;;;5009469;28;20053;-70
2023/07/13 09:24:38;;;;;;;15.07;4.68;;;39.60;55.10;;;;;;5009284;28;20045;-73
2023/07/13 09:27:47;;;;;;;13.18;3.92;;;39.70;54.70;;;;;;5009032;28;20512;-73
2023/07/13 09:31:01;;;;;;;13.15;4.90;;;39.80;53.90;;;;;;5009203;28;20037;-73
2023/07/13 09:34:11;;;;;;;11.05;3.88;;;39.90;55.00;;;;;;5008907;28;20503;-73
2023/07/13 09:37:15;;;;;;;41.67;6.72;;;40.10;53.40;;;;;;5008594;28;20052;-76
2023/07/13 09:40:33;;;;;;;18.63;4.60;;;40.10;53.50;;;;;;5009031;28;20396;-75
2023/07/13 09:43:37;;;;;;;7.28;4.05;;;40.20;53.90;;;;;;5008888;28;20053;-73
2023/07/13 09:46:52;;;;;;;15.70;4.75;;;40.50;53.60;;;;;;5009105;28;20045;-73
2023/07/13 09:50:04;;;;;;;10.43;4.97;;;40.50;53.20;;;;;;5009306;28;20053;-72
2023/07/13 09:53:19;;;;;;;14.00;3.95;;;40.40;53.10;;;;;;5008830;28;20053;-73
2023/07/13 09:56:29;;;;;;;11.98;3.95;;;40.40;52.90;;;;;;5009222;28;20053;-73
2023/07/13 09:59:39;;;;;;;13.88;4.22;;;40.50;53.20;;;;;;5009133;28;20115;-72
2023/07/13 10:02:43;;;;;;;7.72;3.75;;;40.60;52.80;;;;;;5008838;28;20049;-72
2023/07/13 10:05:52;;;;;;;14.05;4.55;;;40.50;52.70;;;;;;5007979;28;20054;-74
2023/07/13 10:09:00;;;;;;;12.88;4.65;;;40.20;52.40;;;;;;5008959;28;20041;-72
2023/07/13 10:12:13;;;;;;;20.55;4.78;;;40.20;53.40;;;;;;5008878;28;20108;-72
2023/07/13 10:15:24;;;;;;;9.27;4.13;;;40.00;52.80;;;;;;5008678;28;20041;-73
2023/07/13 10:18:31;;;;;;;37.78;5.95;;;40.10;52.60;;;;;;5008635;28;20384;-71
2023/07/13 10:21:40;;;;;;;10.88;4.32;;;40.20;53.60;;;;;;5008671;28;20057;-72
2023/07/13 10:24:44;;;;;;;7.72;4.25;;;40.30;52.40;;;;;;5008501;28;20057;-76
2023/07/13 10:28:05;;;;;;;13.07;4.63;;;40.30;53.20;;;;;;5008086;28;20042;-79
2023/07/13 10:31:13;;;;;;;29.52;6.85;;;40.50;53.00;;;;;;5008740;28;20052;-71
2023/07/13 10:34:18;;;;;;;9.43;3.83;;;40.10;52.60;;;;;;5008169;28;20061;-73
2023/07/13 10:37:27;;;;;;;14.00;4.70;;;40.20;51.70;;;;;;5008714;28;20393;-71
2023/07/13 10:40:38;;;;;;;15.88;4.57;;;40.20;51.40;;;;;;5008313;28;20052;-70
2023/07/13 10:43:46;;;;;;;10.48;4.30;;;39.70;52.20;;;;;;5008090;28;20064;-69
2023/07/13 10:46:50;;;;;;;10.88;4.40;;;39.30;52.20;;;;;;5008405;28;20515;-71
2023/07/13 10:49:58;;;;;;;10.70;4.45;;;38.90;53.90;;;;;;5008145;28;20049;-71
2023/07/13 10:53:18;;;;;;;8.10;3.45;;;38.60;54.40;;;;;;5008119;28;20041;-70
2023/07/13 10:56:27;;;;;;;13.88;3.90;;;38.40;54.00;;;;;;5007973;28;20044;-71
2023/07/13 10:59:32;;;;;;;11.30;3.90;;;38.20;53.80;;;;;;5007975;28;20508;-73
2023/07/13 11:02:36;;;;;;;9.93;4.28;;;38.00;53.80;;;;;;5007665;28;20385;-72
2023/07/13 11:05:40;;;;;;;10.55;4.15;;;37.80;53.90;;;;;;5005952;28;20053;-72
2023/07/13 11:08:47;;;;;;;14.52;4.03;;;37.60;54.90;;;;;;5007091;28;20037;-73
2023/07/13 11:11:51;;;;;;;7.32;3.65;;;37.50;54.70;;;;;;5006681;28;20043;-72
2023/07/13 11:14:55;;;;;;;11.05;4.88;;;37.40;54.40;;;;;;5007843;28;20045;-72
2023/07/13 11:18:04;;;;;;;14.02;3.80;;;37.30;54.60;;;;;;5007611;28;20041;-73
2023/07/13 11:21:26;;;;;;;6.63;3.88;;;37.20;55.50;;;;;;5007803;28;20049;-72
2023/07/13 11:24:59;;;;;;;9.80;4.10;;;37.10;55.00;;;;;;5007640;28;20070;-72
2023/07/13 11:28:12;;;;;;;9.38;3.90;;;37.00;55.90;;;;;;5008064;28;20045;-72
2023/07/13 11:31:16;;;;;;;18.48;6.57;;;37.00;54.80;;;;;;5009569;28;20053;-73
2023/07/13 11:34:38;;;;;;;8.18;3.85;;;36.80;55.90;;;;;;5010522;28;20057;-72
2023/07/13 11:37:42;;;;;;;7.93;4.10;;;36.80;56.50;;;;;;5011213;28;20504;-72
2023/07/13 11:40:48;;;;;;;13.43;4.40;;;36.70;56.80;;;;;;4998935;28;20038;-73
2023/07/13 11:44:05;;;;;;;14.68;5.32;;;36.60;57.10;;;;;;5011187;28;20049;-73
2023/07/13 11:47:17;;;;;;;10.30;4.50;;;36.60;58.20;;;;;;5010941;28;20420;-72
2023/07/13 11:50:23;;;;;;;18.02;4.60;;;36.90;57.00;;;;;;5010921;28;20053;-72
2023/07/13 11:53:30;;;;;;;12.45;4.60;;;38.00;55.90;;;;;;5010500;28;20044;-72
2023/07/13 11:56:37;;;;;;;13.23;4.68;;;38.70;54.90;;;;;;5011433;28;20045;-71
2023/07/13 11:59:43;;;;;;;15.57;4.65;;;38.80;54.60;;;;;;5010931;28;20049;-71
2023/07/13 12:02:53;;;;;;;10.35;4.25;;;38.80;54.00;;;;;;5010631;28;20492;-71
2023/07/13 12:06:02;;;;;;;9.85;4.10;;;39.30;55.10;;;;;;5010494;28;20060;-72
2023/07/13 12:09:15;;;;;;;11.70;5.20;;;39.50;53.70;;;;;;5010883;28;20389;-72
2023/07/13 12:12:22;;;;;;;9.15;3.60;;;39.60;54.10;;;;;;5010536;28;20500;-73
2023/07/13 12:15:44;;;;;;;14.82;4.15;;;39.80;53.80;;;;;;5010628;28;20038;-72
2023/07/13 12:18:48;;;;;;;8.38;4.05;;;39.90;53.90;;;;;;5010231;28;20071;-71
2023/07/13 12:21:57;;;;;;;10.13;4.20;;;39.70;52.60;;;;;;5010444;28;20038;-70
2023/07/13 12:25:01;;;;;;;9.82;4.38;;;39.60;52.50;;;;;;5010303;28;20397;-69
2023/07/13 12:28:31;;;;;;;12.40;4.22;;;39.50;52.30;;;;;;5010443;28;20049;-69
2023/07/13 12:31:42;;;;;;;11.83;5.10;;;39.40;52.60;;;;;;5010432;28;20053;-70
2023/07/13 12:34:55;;;;;;;7.03;3.35;;;39.50;52.00;;;;;;5010174;28;20053;-69
2023/07/13 12:38:00;;;;;;;9.98;4.10;;;39.10;51.70;;;;;;5009885;28;20108;-72
2023/07/13 12:41:07;;;;;;;15.50;4.43;;;39.10;52.30;;;;;;5009178;28;20046;-72
2023/07/13 12:44:14;;;;;;;6.90;3.67;;;38.50;53.20;;;;;;5009240;28;20045;-71
2023/07/13 12:47:20;;;;;;;8.52;4.50;;;38.10;53.60;;;;;;5009952;28;20049;-71
2023/07/13 12:50:40;;;;;;;10.50;4.15;;;37.80;54.20;;;;;;5010263;28;20044;-71
2023/07/13 12:53:52;;;;;;;8.10;3.70;;;37.50;54.30;;;;;;5009887;28;20044;-72
2023/07/13 12:56:59;;;;;;;7.88;3.53;;;37.40;55.00;;;;;;5009752;28;20037;-72
2023/07/13 13:00:04;;;;;;;7.10;3.80;;;37.20;55.60;;;;;;5009720;28;20655;-72
2023/07/13 13:03:33;;;;;;;12.15;4.07;;;37.10;55.60;;;;;;5009779;28;20516;-72
2023/07/13 13:06:37;;;;;;;7.15;3.90;;;37.00;54.10;;;;;;5014400;28;20057;-72
2023/07/13 13:09:41;;;;;;;11.50;4.15;;;36.80;54.60;;;;;;5009592;28;20053;-72
2023/07/13 13:12:45;;;;;;;20.48;5.28;;;36.70;55.00;;;;;;5009315;28;20056;-72
2023/07/13 13:15:49;;;;;;;10.50;3.85;;;36.60;55.40;;;;;;5009391;28;20045;-72
2023/07/13 13:18:56;;;;;;;11.70;4.00;;;36.60;55.00;;;;;;5008349;28;20044;-72
2023/07/13 13:22:01;;;;;;;6.93;3.58;;;36.50;55.30;;;;;;5009480;28;20065;-71
2023/07/13 13:25:07;;;;;;;7.82;4.05;;;36.50;54.70;;;;;;5009195;28;20404;-72
2023/07/13 13:28:16;;;;;;;7.40;4.10;;;36.40;55.30;;;;;;5009204;28;20038;-72
2023/07/13 13:31:20;;;;;;;9.25;4.20;;;36.40;55.50;;;;;;5009198;28;20054;-72
2023/07/13 13:34:24;;;;;;;8.27;3.78;;;36.40;55.20;;;;;;5009259;28;20061;-72
2023/07/13 13:37:28;;;;;;;8.90;3.65;;;36.40;55.60;;;;;;5009108;28;20393;-72
2023/07/13 13:40:32;;;;;;;8.00;3.78;;;36.30;55.80;;;;;;5009173;28;20048;-71
2023/07/13 13:43:36;;;;;;;6.25;3.70;;;36.30;56.20;;;;;;5009055;28;20503;-72
2023/07/13 13:46:41;;;;;;;5.90;3.50;;;36.30;55.90;;;;;;5008512;28;20050;-71
2023/07/13 13:49:47;;;;;;;12.57;3.90;;;36.30;56.60;;;;;;5009271;28;20048;-71
2023/07/13 13:52:51;;;;;;;5.95;3.63;;;36.30;55.80;;;;;;5008690;28;20045;-71
2023/07/13 13:55:55;;;;;;;8.00;3.70;;;36.30;55.60;;;;;;5009098;28;20038;-72
2023/07/13 13:58:59;;;;;;;4.85;3.63;;;36.30;56.30;;;;;;5009045;28;20049;-72
2023/07/13 14:02:47;;;;;;;5.63;3.90;;;36.30;55.20;;;;;;5008534;28;20041;-71
2023/07/13 14:05:51;;;;;;;8.07;3.60;;;36.30;55.20;;;;;;5019606;28;20051;-71
2023/07/13 14:08:55;;;;;;;11.43;4.63;;;36.30;55.60;;;;;;5008729;28;20042;-71
2023/07/13 14:11:59;;;;;;;9.38;4.57;;;36.20;55.00;;;;;;5008879;28;20056;-72
2023/07/13 14:15:04;;;;;;;7.38;3.92;;;36.10;55.60;;;;;;5007871;28;20042;-71
2023/07/13 14:18:09;;;;;;;10.27;3.55;;;36.00;55.70;;;;;;5008865;28;20053;-72
2023/07/13 14:21:19;;;;;;;10.48;4.07;;;35.90;55.50;;;;;;5008624;28;20053;-72
2023/07/13 14:24:23;;;;;;;11.18;4.30;;;35.80;55.80;;;;;;5007794;28;20045;-72
2023/07/13 14:27:27;;;;;;;26.38;5.07;;;35.70;56.20;;;;;;5007721;28;20053;-71
2023/07/13 14:30:31;;;;;;;9.40;3.50;;;35.70;56.10;;;;;;5008325;28;20041;-71
2023/07/13 14:33:35;;;;;;;11.27;4.10;;;35.60;56.50;;;;;;5008150;28;20049;-71
2023/07/13 14:36:46;;;;;;;11.80;3.97;;;35.50;56.90;;;;;;5008559;28;20049;-71
2023/07/13 14:39:52;;;;;;;13.43;4.68;;;35.50;57.00;;;;;;5008145;28;20049;-71
2023/07/13 14:42:56;;;;;;;9.52;4.32;;;35.40;56.70;;;;;;5008057;28;20041;-71
2023/07/13 14:46:01;;;;;;;10.35;3.95;;;35.40;57.00;;;;;;5007313;28;20532;-75
2023/07/13 14:49:25;;;;;;;11.70;3.70;;;35.50;57.30;;;;;;5008344;28;20042;-74
2023/07/13 14:52:29;;;;;;;7.55;4.10;;;36.80;56.50;;;;;;5008386;28;20389;-71
2023/07/13 14:55:33;;;;;;;16.45;4.68;;;37.80;54.90;;;;;;5008183;28;20042;-71
2023/07/13 14:58:41;;;;;;;12.52;4.40;;;38.10;54.20;;;;;;5008261;28;20045;-71
2023/07/13 15:01:47;;;;;;;15.02;4.72;;;38.00;53.80;;;;;;5007663;28;20037;-71
2023/07/13 15:04:51;;;;;;;16.52;4.35;;;38.40;54.00;;;;;;5008477;28;20056;-69
2023/07/13 15:07:59;;;;;;;15.13;4.57;;;38.50;54.00;;;;;;5011812;28;20053;-69
2023/07/13 15:11:04;;;;;;;11.90;4.00;;;38.70;53.60;;;;;;5011232;28;20045;-69
2023/07/13 15:14:08;;;;;;;10.82;4.82;;;38.80;54.00;;;;;;5011623;28;20053;-70
2023/07/13 15:17:43;;;;;;;15.32;3.88;;;39.10;53.90;;;;;;5010722;28;20436;-70
2023/07/13 15:20:48;;;;;;;12.20;4.72;;;38.50;53.80;;;;;;5010080;28;20049;-70
2023/07/13 15:23:52;;;;;;;13.85;4.25;;;38.10;54.30;;;;;;5010267;28;20045;-72
2023/07/13 15:26:56;;;;;;;20.02;5.07;;;38.10;54.40;;;;;;5010962;28;20053;-72
2023/07/13 15:30:01;;;;;;;15.75;4.50;;;38.10;54.80;;;;;;5010674;28;20045;-70
2023/07/13 15:33:22;;;;;;;12.60;4.70;;;38.10;54.90;;;;;;5010879;28;20057;-72
2023/07/13 15:36:30;;;;;;;18.08;4.55;;;37.90;55.00;;;;;;5011238;28;20048;-69
2023/07/13 15:39:35;;;;;;;11.10;4.45;;;37.90;55.20;;;;;;5010485;28;20504;-72
2023/07/13 15:42:44;;;;;;;16.48;5.20;;;37.70;55.90;;;;;;5010134;28;20049;-70
2023/07/13 15:45:48;;;;;;;10.63;4.82;;;38.00;56.00;;;;;;5011004;28;20057;-71
2023/07/13 15:48:57;;;;;;;9.77;3.83;;;38.00;56.10;;;;;;5011026;28;20515;-70
2023/07/13 15:52:02;;;;;;;7.85;4.18;;;37.90;56.00;;;;;;5010032;28;20046;-68
2023/07/13 15:55:09;;;;;;;7.90;4.03;;;37.70;56.30;;;;;;5010870;28;20034;-71
2023/07/13 15:58:14;;;;;;;15.07;4.05;;;37.50;56.60;;;;;;5010836;28;20203;-73
2023/07/13 16:01:20;;;;;;;20.70;5.07;;;37.00;57.30;;;;;;5010776;28;20516;-71